Time;durP1;ratioP1;P1;durP2;ratioP2;P2;SDS_P1;SDS_P2;PMS_P1;PMS_P2;Temp;Humidity;BMP_temperature;BMP_pressure;BME280_temperature;BME280_humidity;BME280_pressure;Samples;Min_cycle;Max_cycle;Signal;HPM_P1;HPM_P2
2023/10/12 00:00:24;;;;;;;9.35;4.45;;;16.40;1.00;;;;;;7382736;19;20086;-69
2023/10/12 00:02:52;;;;;;;9.48;4.22;;;16.30;1.00;;;;;;7385201;19;20497;-69
2023/10/12 00:05:26;;;;;;;10.85;4.38;;;16.20;1.00;;;;;;7385237;19;20104;-68
2023/10/12 00:07:57;;;;;;;12.32;4.82;;;16.30;1.00;;;;;;7381699;19;20020;-69
2023/10/12 00:10:40;;;;;;;9.68;4.47;;;16.40;1.00;;;;;;7384476;19;20035;-69
2023/10/12 00:13:14;;;;;;;12.65;5.25;;;16.40;1.00;;;;;;7379162;19;20049;-68
2023/10/12 00:15:46;;;;;;;11.85;4.97;;;16.30;1.00;;;;;;7375881;19;20505;-69
2023/10/12 00:18:17;;;;;;;14.18;5.93;;;16.40;1.00;;;;;;7377283;19;20030;-69
2023/10/12 00:20:51;;;;;;;9.02;4.97;;;16.30;1.00;;;;;;7372985;19;20032;-68
2023/10/12 00:23:21;;;;;;;10.20;5.00;;;16.20;1.00;;;;;;7378269;19;20015;-68
2023/10/12 00:25:54;;;;;;;9.18;4.30;;;16.20;1.00;;;;;;7375471;19;20011;-68
2023/10/12 00:28:38;;;;;;;9.63;4.78;;;16.10;1.00;;;;;;7377431;19;20018;-68
2023/10/12 00:31:16;;;;;;;10.32;5.15;;;16.10;1.00;;;;;;6866041;19;2004126;-67
2023/10/12 00:33:48;;;;;;;10.13;4.80;;;16.00;1.00;;;;;;7375582;19;20016;-68
2023/10/12 00:36:25;;;;;;;10.27;4.80;;;15.90;1.00;;;;;;7375038;19;20018;-68
2023/10/12 00:38:56;;;;;;;10.85;6.20;;;16.00;1.00;;;;;;7378139;19;20072;-68
2023/10/12 00:41:29;;;;;;;10.73;5.97;;;16.00;1.00;;;;;;7375836;19;20014;-68
2023/10/12 00:44:08;;;;;;;13.95;6.20;;;16.00;1.00;;;;;;7374967;19;20106;-69
2023/10/12 00:46:58;;;;;;;10.88;6.38;;;16.00;1.00;;;;;;7373848;19;20050;-69
2023/10/12 00:49:31;;;;;;;16.20;6.53;;;15.90;1.00;;;;;;7372783;19;20081;-69
2023/10/12 00:52:15;;;;;;;13.18;6.43;;;15.90;1.00;;;;;;7375094;19;20037;-69
2023/10/12 00:54:55;;;;;;;11.77;6.45;;;15.90;1.00;;;;;;7374659;19;20396;-69
2023/10/12 00:57:26;;;;;;;13.00;6.43;;;15.90;1.00;;;;;;7374174;19;20018;-69
2023/10/12 01:00:01;;;;;;;10.52;6.10;;;15.90;1.00;;;;;;7374952;19;20011;-69
2023/10/12 01:02:39;;;;;;;13.10;6.18;;;15.80;1.00;;;;;;7376711;19;20027;-69
2023/10/12 01:05:07;;;;;;;11.13;6.65;;;15.80;1.00;;;;;;7373579;19;20574;-69
2023/10/12 01:07:38;;;;;;;12.80;6.18;;;15.80;1.00;;;;;;7374212;19;20046;-68
2023/10/12 01:10:10;;;;;;;12.57;6.88;;;15.70;1.00;;;;;;7375467;19;20015;-68
2023/10/12 01:12:40;;;;;;;11.05;6.93;;;15.80;1.00;;;;;;7377255;19;20014;-68
2023/10/12 01:15:16;;;;;;;11.18;6.68;;;15.70;1.00;;;;;;7376877;19;20017;-68
2023/10/12 01:17:51;;;;;;;12.98;6.45;;;15.80;1.00;;;;;;7374406;19;20059;-68
2023/10/12 01:20:26;;;;;;;14.32;6.93;;;15.70;1.00;;;;;;7377012;19;20097;-68
2023/10/12 01:22:59;;;;;;;12.93;6.75;;;15.70;1.00;;;;;;7374697;19;20019;-68
2023/10/12 01:25:31;;;;;;;12.02;6.13;;;15.70;1.00;;;;;;7372358;19;20514;-69
2023/10/12 01:28:06;;;;;;;11.40;6.32;;;15.60;1.00;;;;;;7374065;19;20032;-69
2023/10/12 01:30:39;;;;;;;11.63;6.10;;;15.60;1.00;;;;;;7375568;19;20015;-69
2023/10/12 01:33:09;;;;;;;11.80;6.68;;;15.60;1.00;;;;;;7376204;19;20039;-67
2023/10/12 01:35:48;;;;;;;12.13;5.90;;;15.50;1.00;;;;;;7376490;19;20006;-68
2023/10/12 01:38:21;;;;;;;11.80;5.68;;;15.50;1.00;;;;;;7376789;19;20387;-68
2023/10/12 01:40:56;;;;;;;9.13;5.55;;;15.40;1.00;;;;;;7377564;19;20034;-69
2023/10/12 01:43:28;;;;;;;;;;;15.30;1.00;;;;;;7376051;19;20090;-69
2023/10/12 01:46:06;;;;;;;11.18;5.97;;;15.30;1.00;;;;;;7374424;19;19918;-69
2023/10/12 01:48:37;;;;;;;9.27;6.03;;;15.30;1.00;;;;;;7374488;19;20014;-69
2023/10/12 01:51:16;;;;;;;17.13;6.75;;;15.40;1.00;;;;;;7372479;19;20003;-68
2023/10/12 01:53:49;;;;;;;13.98;6.38;;;15.40;1.00;;;;;;7376409;19;20026;-69
2023/10/12 01:56:19;;;;;;;9.75;6.20;;;15.40;1.00;;;;;;7373922;19;20003;-69
2023/10/12 01:58:51;;;;;;;13.13;5.75;;;15.30;1.00;;;;;;7374926;19;20003;-69
2023/10/12 02:01:24;;;;;;;12.27;6.03;;;15.30;1.00;;;;;;7374337;19;20900;-69
2023/10/12 02:03:56;;;;;;;11.38;5.93;;;15.30;1.00;;;;;;7374279;19;20015;-68
2023/10/12 02:06:28;;;;;;;8.85;5.30;;;15.20;1.00;;;;;;7370686;19;19998;-67
2023/10/12 02:09:08;;;;;;;12.43;4.72;;;15.20;1.00;;;;;;7373017;19;20010;-68
2023/10/12 02:11:43;;;;;;;9.60;5.55;;;15.20;1.00;;;;;;7374270;19;20007;-69
2023/10/12 02:14:23;;;;;;;10.77;5.28;;;15.30;1.00;;;;;;7373896;19;20015;-68
2023/10/12 02:16:55;;;;;;;11.57;5.07;;;15.40;1.00;;;;;;7372974;19;20006;-68
2023/10/12 02:19:38;;;;;;;15.45;7.57;;;15.40;1.00;;;;;;7374212;19;20002;-68
2023/10/12 02:22:20;;;;;;;10.73;5.93;;;15.40;1.00;;;;;;6863041;19;2004744;-68
2023/10/12 02:25:02;;;;;;;12.20;5.32;;;15.50;1.00;;;;;;7372860;19;20011;-68
2023/10/12 02:27:33;;;;;;;8.73;5.00;;;15.50;1.00;;;;;;7369773;19;20106;-69
2023/10/12 02:30:06;;;;;;;9.60;5.47;;;15.50;1.00;;;;;;7373862;19;20003;-69
2023/10/12 02:32:46;;;;;;;9.32;5.28;;;15.50;1.00;;;;;;7372249;19;20014;-69
2023/10/12 02:35:19;;;;;;;12.13;5.68;;;15.50;1.00;;;;;;7373674;19;20085;-69
2023/10/12 02:37:50;;;;;;;10.23;5.43;;;15.50;1.00;;;;;;7369331;19;20006;-69
2023/10/12 02:40:26;;;;;;;9.55;5.78;;;15.60;1.00;;;;;;7371110;19;20006;-69
2023/10/12 02:42:57;;;;;;;9.60;5.35;;;15.70;1.00;;;;;;7368392;19;20507;-69
2023/10/12 02:45:28;;;;;;;10.10;5.38;;;15.70;1.00;;;;;;7371546;19;20007;-69
2023/10/12 02:48:05;;;;;;;12.52;6.20;;;15.70;1.00;;;;;;7368737;19;20478;-69
2023/10/12 02:50:48;;;;;;;9.57;5.40;;;15.70;1.00;;;;;;7372385;19;20033;-69
2023/10/12 02:53:18;;;;;;;10.93;5.30;;;15.70;1.00;;;;;;7372004;19;20023;-69
2023/10/12 02:56:01;;;;;;;10.70;5.80;;;15.80;1.00;;;;;;7368359;19;20022;-69
2023/10/12 02:58:32;;;;;;;12.02;5.75;;;15.80;1.00;;;;;;7372138;19;20006;-69
2023/10/12 03:01:18;;;;;;;8.30;5.05;;;15.70;1.00;;;;;;7370583;19;20470;-69
2023/10/12 03:03:54;;;;;;;13.13;5.30;;;15.60;1.00;;;;;;7371563;19;20074;-69
2023/10/12 03:06:32;;;;;;;11.23;5.43;;;15.60;1.00;;;;;;7371315;19;20299;-69
2023/10/12 03:09:14;;;;;;;11.68;5.43;;;15.50;1.00;;;;;;7369502;19;20027;-69
2023/10/12 03:11:47;;;;;;;10.25;5.78;;;15.50;1.00;;;;;;7369655;19;20046;-69
2023/10/12 03:14:26;;;;;;;7.78;5.32;;;15.50;1.00;;;;;;7372640;19;20006;-69
2023/10/12 03:17:03;;;;;;;8.73;5.07;;;15.50;1.00;;;;;;7364685;19;20664;-68
2023/10/12 03:19:35;;;;;;;9.20;5.00;;;15.40;1.00;;;;;;7371293;19;20289;-68
2023/10/12 03:22:19;;;;;;;8.65;5.15;;;15.50;1.00;;;;;;7370668;19;20036;-69
2023/10/12 03:24:51;;;;;;;7.50;4.70;;;15.50;1.00;;;;;;7371330;19;20020;-68
2023/10/12 03:27:25;;;;;;;9.48;4.95;;;15.50;1.00;;;;;;7370239;19;20010;-68
2023/10/12 03:30:06;;;;;;;9.30;5.30;;;15.50;1.00;;;;;;7369928;19;20018;-69
2023/10/12 03:32:36;;;;;;;12.85;5.18;;;15.60;1.00;;;;;;6860291;19;2004760;-69
2023/10/12 03:35:12;;;;;;;10.13;5.10;;;15.50;1.00;;;;;;7369846;19;20014;-69
2023/10/12 03:37:45;;;;;;;8.85;5.05;;;15.40;1.00;;;;;;7368452;19;20026;-69
2023/10/12 03:43:10;;;;;;;13.85;4.75;;;15.50;1.00;;;;;;7366419;19;20415;-69
2023/10/12 03:45:56;;;;;;;12.30;4.95;;;15.40;1.00;;;;;;7370543;19;20029;-68
2023/10/12 03:48:47;;;;;;;9.68;4.85;;;15.30;1.00;;;;;;7371475;19;20379;-68
2023/10/12 03:51:26;;;;;;;12.02;5.00;;;15.50;1.00;;;;;;7378282;19;20012;-69
2023/10/12 03:54:11;;;;;;;8.98;5.13;;;15.40;1.00;;;;;;7375433;19;20344;-69
2023/10/12 03:56:41;;;;;;;;;;;15.40;1.00;;;;;;7376185;19;20018;-69
2023/10/12 03:59:19;;;;;;;8.73;5.60;;;15.40;1.00;;;;;;7376545;19;19922;-69
2023/10/12 04:01:49;;;;;;;9.40;4.88;;;15.30;1.00;;;;;;7378156;19;20054;-68
2023/10/12 04:04:35;;;;;;;10.95;5.43;;;15.30;1.00;;;;;;7376604;19;20007;-68
2023/10/12 04:07:16;;;;;;;12.25;5.95;;;15.30;1.00;;;;;;7372946;19;20011;-69
2023/10/12 04:09:51;;;;;;;11.10;5.05;;;15.20;1.00;;;;;;7375713;19;20030;-68
2023/10/12 04:12:49;;;;;;;11.57;5.43;;;15.20;1.00;;;;;;7375449;19;20434;-69
2023/10/12 04:15:27;;;;;;;9.45;5.63;;;15.10;1.00;;;;;;6867581;19;2003913;-69
2023/10/12 04:17:59;;;;;;;11.48;5.25;;;15.10;1.00;;;;;;7373570;19;20011;-70
2023/10/12 04:20:29;;;;;;;10.82;5.45;;;15.10;1.00;;;;;;7377325;19;20011;-69
2023/10/12 04:25:59;;;;;;;10.63;5.10;;;15.00;1.00;;;;;;7376495;19;20043;-68
2023/10/12 04:28:32;;;;;;;9.18;4.97;;;15.00;1.00;;;;;;7375298;19;20014;-68
2023/10/12 04:34:04;;;;;;;9.80;5.80;;;14.90;1.00;;;;;;7376228;19;20018;-67
2023/10/12 04:36:44;;;;;;;12.23;5.55;;;14.80;1.00;;;;;;7372601;19;20034;-68
2023/10/12 04:39:25;;;;;;;16.63;5.97;;;14.60;1.00;;;;;;7375045;19;20074;-68
2023/10/12 04:42:04;;;;;;;14.63;6.13;;;14.50;1.00;;;;;;7375497;19;20113;-68
2023/10/12 04:44:43;;;;;;;9.65;6.15;;;14.30;1.00;;;;;;7375477;19;20006;-68
2023/10/12 04:47:22;;;;;;;11.02;7.05;;;14.30;1.00;;;;;;7374697;19;20048;-68
2023/10/12 04:49:57;;;;;;;10.75;6.32;;;14.10;1.00;;;;;;7377918;19;20029;-68
2023/10/12 04:52:40;;;;;;;11.63;6.57;;;14.10;1.00;;;;;;7372464;19;20010;-68
2023/10/12 04:55:20;;;;;;;11.55;6.30;;;14.00;1.00;;;;;;7374598;19;20011;-68
2023/10/12 04:58:10;;;;;;;9.80;6.13;;;14.00;1.00;;;;;;7376481;19;20040;-68
2023/10/12 05:01:12;;;;;;;10.77;5.55;;;14.10;1.00;;;;;;6865092;19;2004966;-68
2023/10/12 05:04:05;;;;;;;9.43;5.70;;;14.30;1.00;;;;;;6865199;19;2005099;-69
2023/10/12 05:06:36;;;;;;;9.52;5.63;;;14.60;1.00;;;;;;7368424;19;20014;-69
2023/10/12 05:09:11;;;;;;;9.02;6.07;;;14.80;1.00;;;;;;7373410;19;20097;-68
2023/10/12 05:11:41;;;;;;;9.88;5.78;;;15.00;1.00;;;;;;7371270;19;20412;-69
2023/10/12 05:14:15;;;;;;;11.18;6.10;;;15.10;1.00;;;;;;7374969;19;20014;-69
2023/10/12 05:16:45;;;;;;;11.07;6.47;;;15.10;1.00;;;;;;7373968;19;20035;-69
2023/10/12 05:19:18;;;;;;;13.10;7.35;;;15.30;1.00;;;;;;7374544;19;20398;-69
2023/10/12 05:21:48;;;;;;;11.45;6.45;;;15.10;1.00;;;;;;7374455;19;20010;-69
2023/10/12 05:24:22;;;;;;;15.00;7.10;;;15.20;1.00;;;;;;7374591;19;20030;-69
2023/10/12 05:26:53;;;;;;;11.55;6.15;;;15.20;1.00;;;;;;7369116;19;20014;-69
2023/10/12 05:29:35;;;;;;;11.13;5.78;;;15.30;1.00;;;;;;7374798;19;20006;-69
2023/10/12 05:32:18;;;;;;;11.88;5.20;;;15.50;1.00;;;;;;7371453;19;20048;-69
2023/10/12 05:34:52;;;;;;;12.63;5.77;;;15.50;1.00;;;;;;7373940;19;20035;-69
2023/10/12 05:37:37;;;;;;;14.73;5.57;;;15.60;1.00;;;;;;7370301;19;20219;-69
2023/10/12 05:40:13;;;;;;;12.15;5.35;;;15.70;1.00;;;;;;6863244;19;2004837;-68
2023/10/12 05:42:46;;;;;;;12.52;5.53;;;15.70;1.00;;;;;;7373643;19;20010;-69
2023/10/12 05:45:21;;;;;;;16.92;7.13;;;15.70;1.00;;;;;;7371843;19;20030;-69
2023/10/12 05:47:52;;;;;;;12.18;6.28;;;15.70;1.00;;;;;;7373216;19;20014;-68
2023/10/12 05:50:30;;;;;;;10.38;6.28;;;15.70;1.00;;;;;;7373546;19;20018;-68
2023/10/12 05:53:02;;;;;;;14.95;6.47;;;15.60;1.00;;;;;;7369993;19;20074;-68
2023/10/12 05:55:33;;;;;;;13.95;6.45;;;15.80;1.00;;;;;;7372705;19;20022;-68
2023/10/12 05:58:11;;;;;;;12.50;6.03;;;15.80;1.00;;;;;;7372176;19;20010;-68
2023/10/12 06:00:44;;;;;;;13.68;5.97;;;15.70;1.00;;;;;;7373871;19;20011;-68
2023/10/12 06:03:20;;;;;;;13.98;5.32;;;15.70;1.00;;;;;;7370189;19;20371;-68
2023/10/12 06:05:54;;;;;;;16.42;6.22;;;15.80;1.00;;;;;;7371261;19;20049;-68
2023/10/12 06:08:26;;;;;;;9.23;5.43;;;15.90;1.00;;;;;;7372661;19;20027;-68
2023/10/12 06:10:58;;;;;;;11.02;6.15;;;15.90;1.00;;;;;;7368704;19;20116;-69
2023/10/12 06:13:32;;;;;;;11.85;6.22;;;16.00;1.00;;;;;;7372523;19;20122;-69
2023/10/12 06:16:02;;;;;;;11.40;5.80;;;16.10;1.00;;;;;;7369241;19;20010;-69
2023/10/12 06:18:37;;;;;;;9.57;5.70;;;16.10;1.00;;;;;;7373165;19;20089;-69
2023/10/12 06:21:09;;;;;;;12.45;6.00;;;16.10;1.00;;;;;;7370760;19;20369;-69
2023/10/12 06:23:42;;;;;;;15.02;6.05;;;16.20;1.00;;;;;;7372685;19;20003;-68
2023/10/12 06:26:17;;;;;;;22.98;8.57;;;16.30;1.00;;;;;;7370329;19;20015;-69
2023/10/12 06:28:49;;;;;;;22.55;7.18;;;16.30;1.00;;;;;;7372154;19;20022;-69
2023/10/12 06:31:21;;;;;;;20.50;7.85;;;16.40;1.00;;;;;;7371629;19;20006;-69
2023/10/12 06:33:52;;;;;;;21.10;9.30;;;16.50;1.00;;;;;;7371866;19;20011;-69
2023/10/12 06:36:37;;;;;;;21.98;8.10;;;16.60;1.00;;;;;;7369054;19;20017;-69
2023/10/12 06:42:09;;;;;;;15.35;6.90;;;16.90;1.00;;;;;;7369567;19;20449;-68
2023/10/12 06:44:37;;;;;;;18.52;7.60;;;17.00;1.00;;;;;;6860622;19;2004862;-69
2023/10/12 06:49:51;;;;;;;15.10;7.25;;;17.40;1.00;;;;;;7371920;19;20010;-68
2023/10/12 06:52:22;;;;;;;22.52;7.53;;;17.50;1.00;;;;;;7371296;19;20114;-68
2023/10/12 06:54:54;;;;;;;12.48;6.60;;;17.60;1.00;;;;;;7371504;19;20006;-69
2023/10/12 06:57:36;;;;;;;14.00;6.20;;;17.60;1.00;;;;;;7369956;19;20506;-68
2023/10/12 07:00:33;;;;;;;13.38;6.85;;;17.70;1.00;;;;;;7368017;19;20006;-69
2023/10/12 07:03:03;;;;;;;17.52;6.97;;;17.80;1.00;;;;;;7369094;19;20019;-68
2023/10/12 07:05:38;;;;;;;13.70;6.85;;;18.00;1.00;;;;;;7369952;19;20039;-69
2023/10/12 07:08:15;;;;;;;10.90;6.50;;;18.00;1.00;;;;;;7370258;19;20022;-70
2023/10/12 07:10:58;;;;;;;19.00;6.65;;;18.00;1.00;;;;;;7370078;19;20375;-69
2023/10/12 07:13:28;;;;;;;17.17;6.72;;;18.00;1.00;;;;;;7370460;19;20479;-69
2023/10/12 07:15:58;;;;;;;17.80;6.75;;;18.00;1.00;;;;;;7368517;19;20011;-69
2023/10/12 07:18:28;;;;;;;16.73;6.78;;;18.00;1.00;;;;;;7371306;19;20048;-69
2023/10/12 07:20:59;;;;;;;17.48;6.75;;;18.10;1.00;;;;;;7369979;19;20006;-69
2023/10/12 07:23:42;;;;;;;14.23;6.18;;;18.20;1.00;;;;;;7376409;19;20021;-69
2023/10/12 07:26:15;;;;;;;16.65;6.75;;;18.20;1.00;;;;;;7375126;19;20485;-68
2023/10/12 07:28:49;;;;;;;19.00;6.95;;;18.20;1.00;;;;;;7378231;19;20011;-69
2023/10/12 07:34:14;;;;;;;13.32;5.88;;;18.30;1.00;;;;;;6867414;19;2004824;-68
2023/10/12 07:36:52;;;;;;;;;;;18.30;1.00;;;;;;7378020;19;20390;-68
2023/10/12 07:39:38;;;;;;;14.57;6.20;;;18.30;1.00;;;;;;7379945;19;20620;-69
2023/10/12 07:42:12;;;;;;;17.92;6.78;;;18.30;1.00;;;;;;6863452;19;2005061;-69
2023/10/12 07:44:54;;;;;;;13.82;6.78;;;18.30;1.00;;;;;;7377433;19;20527;-69
2023/10/12 07:47:31;;;;;;;15.02;6.97;;;18.40;1.00;;;;;;7377600;19;20039;-68
2023/10/12 07:50:08;;;;;;;17.88;6.60;;;18.40;1.00;;;;;;7375589;19;20074;-70
2023/10/12 07:52:53;;;;;;;12.88;6.25;;;18.40;1.00;;;;;;7378835;19;20113;-68
2023/10/12 07:55:28;;;;;;;15.23;6.70;;;18.40;1.00;;;;;;7379991;19;20011;-69
2023/10/12 07:57:59;;;;;;;14.70;6.35;;;18.30;1.00;;;;;;7374829;19;20022;-69
2023/10/12 08:00:41;;;;;;;21.25;6.85;;;18.40;1.00;;;;;;7380189;19;20021;-68
2023/10/12 08:03:18;;;;;;;14.32;6.20;;;18.30;1.00;;;;;;7378120;19;20033;-68
2023/10/12 08:06:06;;;;;;;11.95;6.05;;;18.30;1.00;;;;;;7377983;19;20006;-69
2023/10/12 08:08:37;;;;;;;12.65;6.82;;;18.30;1.00;;;;;;7375743;19;20116;-68
2023/10/12 08:11:27;;;;;;;13.40;6.43;;;18.30;1.00;;;;;;7374791;19;20022;-69
2023/10/12 08:14:09;;;;;;;15.00;6.82;;;18.30;1.00;;;;;;7376175;19;20006;-69
2023/10/12 08:16:40;;;;;;;13.00;6.70;;;18.30;1.00;;;;;;7376012;19;20427;-68
2023/10/12 08:19:23;;;;;;;10.73;6.18;;;18.40;1.00;;;;;;7375879;19;20007;-68
2023/10/12 08:22:03;;;;;;;17.35;6.78;;;18.40;1.00;;;;;;7378271;19;20347;-69
2023/10/12 08:24:36;;;;;;;13.18;6.15;;;18.50;1.00;;;;;;7377115;19;20064;-69
2023/10/12 08:27:11;;;;;;;12.02;6.35;;;18.50;1.00;;;;;;7375616;19;20021;-69
2023/10/12 08:32:34;;;;;;;15.55;6.68;;;18.60;1.00;;;;;;7379266;19;20031;-68
2023/10/12 08:35:11;;;;;;;13.20;5.70;;;18.60;1.00;;;;;;7374312;19;20718;-68
2023/10/12 08:40:29;;;;;;;14.23;5.90;;;18.80;1.00;;;;;;7374701;19;20014;-68
2023/10/12 08:43:06;;;;;;;14.05;6.55;;;18.80;1.00;;;;;;7373883;19;20013;-68
2023/10/12 08:45:38;;;;;;;13.32;7.10;;;18.90;1.00;;;;;;7375953;19;20049;-68
2023/10/12 08:48:09;;;;;;;14.05;5.65;;;18.90;1.00;;;;;;7375821;19;20018;-69
2023/10/12 08:50:58;;;;;;;12.00;5.68;;;19.00;1.00;;;;;;7376791;19;20014;-68
2023/10/12 08:53:31;;;;;;;10.52;5.82;;;19.10;1.00;;;;;;7375197;19;20096;-68
2023/10/12 08:56:08;;;;;;;16.97;5.97;;;19.10;1.00;;;;;;7374672;19;20507;-68
2023/10/12 08:58:50;;;;;;;14.85;10.60;;;19.10;1.00;;;;;;7377629;19;20015;-69
2023/10/12 09:01:23;;;;;;;16.83;6.88;;;19.20;1.00;;;;;;7376174;19;20014;-69
2023/10/12 09:04:03;;;;;;;10.55;5.22;;;19.30;1.00;;;;;;7376639;19;20360;-69
2023/10/12 09:06:53;;;;;;;10.32;4.72;;;19.20;1.00;;;;;;7372451;19;20434;-69
2023/10/12 09:12:11;;;;;;;13.70;5.80;;;19.40;1.00;;;;;;7370589;19;20038;-68
2023/10/12 09:14:46;;;;;;;8.60;5.30;;;19.50;1.00;;;;;;7376297;19;20098;-69
2023/10/12 09:17:32;;;;;;;10.55;5.20;;;19.50;1.00;;;;;;7373020;19;20371;-69
2023/10/12 09:22:46;;;;;;;10.63;5.05;;;19.60;1.00;;;;;;7375808;19;20081;-68
2023/10/12 09:25:49;;;;;;;12.15;5.22;;;19.70;1.00;;;;;;7374638;19;20434;-68
2023/10/12 09:28:13;;;;;;;12.50;5.57;;;19.70;1.00;;;;;;7369122;19;20067;-68
2023/10/12 09:30:46;;;;;;;9.60;5.05;;;19.70;1.00;;;;;;7375296;19;20031;-70
2023/10/12 09:33:44;;;;;;;7.60;5.20;;;19.80;1.00;;;;;;7374236;19;20018;-69
2023/10/12 09:36:15;;;;;;;9.15;4.93;;;19.90;1.00;;;;;;6862957;19;2004349;-69
2023/10/12 09:38:45;;;;;;;12.77;5.38;;;19.90;1.00;;;;;;7375334;19;20015;-67
2023/10/12 09:41:19;;;;;;;10.50;5.22;;;19.90;1.00;;;;;;7376295;19;20011;-68
2023/10/12 09:43:54;;;;;;;11.77;5.53;;;19.90;1.00;;;;;;7382852;19;20010;-68
2023/10/12 09:46:31;;;;;;;14.63;5.15;;;20.00;1.00;;;;;;7371358;19;20007;-68
2023/10/12 09:49:06;;;;;;;13.65;5.90;;;20.10;1.00;;;;;;7373198;19;20031;-69
2023/10/12 09:51:38;;;;;;;11.82;5.22;;;20.10;1.00;;;;;;7372194;19;20632;-69
2023/10/12 09:54:15;;;;;;;11.30;5.50;;;20.20;1.00;;;;;;7374892;19;20030;-69
2023/10/12 09:56:57;;;;;;;14.73;6.78;;;20.30;1.00;;;;;;7373014;19;20011;-69
2023/10/12 09:59:29;;;;;;;12.07;4.60;;;20.30;1.00;;;;;;7375818;19;20021;-69
2023/10/12 10:02:10;;;;;;;14.30;5.25;;;20.30;1.00;;;;;;7374087;19;20029;-69
2023/10/12 10:04:41;;;;;;;13.38;6.00;;;20.30;1.00;;;;;;7373801;19;20040;-69
2023/10/12 10:07:25;;;;;;;9.77;5.88;;;20.40;1.00;;;;;;7372722;19;20043;-69
2023/10/12 10:09:58;;;;;;;17.85;5.93;;;20.50;1.00;;;;;;7376066;19;20091;-69
2023/10/12 10:12:35;;;;;;;17.10;7.75;;;20.50;1.00;;;;;;7370033;19;20011;-70
2023/10/12 10:15:16;;;;;;;15.45;5.82;;;20.60;1.00;;;;;;7373169;19;20035;-70
2023/10/12 10:17:52;;;;;;;8.77;6.35;;;20.50;1.00;;;;;;7372447;19;20010;-68
2023/10/12 10:23:13;;;;;;;9.00;4.70;;;20.80;1.00;;;;;;7370710;19;20011;-69
2023/10/12 10:25:56;;;;;;;11.93;4.95;;;20.80;1.00;;;;;;7373051;19;20077;-69
2023/10/12 10:28:30;;;;;;;19.05;5.78;;;20.80;1.00;;;;;;7374534;19;20021;-69
2023/10/12 10:31:03;;;;;;;11.48;5.28;;;21.00;1.00;;;;;;7372044;19;20011;-69
2023/10/12 10:33:39;;;;;;;13.98;5.35;;;21.20;1.00;;;;;;7372129;19;20014;-69
2023/10/12 10:36:17;;;;;;;6.63;4.80;;;21.10;1.00;;;;;;7370680;19;20006;-69
2023/10/12 10:38:53;;;;;;;13.60;5.22;;;21.20;1.00;;;;;;7373696;19;20026;-69
2023/10/12 10:41:38;;;;;;;10.20;5.13;;;21.40;1.00;;;;;;7370725;19;20030;-68
2023/10/12 10:44:11;;;;;;;18.95;6.13;;;21.30;1.00;;;;;;6861686;19;2003947;-69
2023/10/12 10:46:44;;;;;;;10.02;5.30;;;21.20;1.00;;;;;;7371283;19;20466;-68
2023/10/12 10:49:19;;;;;;;11.15;4.80;;;21.40;1.00;;;;;;7373552;19;20010;-68
2023/10/12 10:52:13;;;;;;;9.25;5.20;;;21.40;1.00;;;;;;7374344;19;20031;-69
2023/10/12 10:54:56;;;;;;;10.95;4.88;;;21.40;1.00;;;;;;6864188;19;2005046;-68
2023/10/12 10:57:37;;;;;;;9.57;5.40;;;21.50;1.00;;;;;;7371538;19;20126;-69
2023/10/12 11:00:15;;;;;;;9.48;5.05;;;21.40;1.00;;;;;;6861834;19;2004818;-68
2023/10/12 11:02:48;;;;;;;11.32;5.32;;;21.50;1.00;;;;;;7373853;19;20183;-69
2023/10/12 11:05:28;;;;;;;7.72;4.78;;;21.70;1.00;;;;;;7372222;19;20025;-69
2023/10/12 11:08:18;;;;;;;8.07;4.65;;;21.60;1.00;;;;;;7370147;19;20017;-69
2023/10/12 11:13:44;;;;;;;14.10;5.00;;;21.60;1.00;;;;;;6859151;19;2004804;-69
2023/10/12 11:16:28;;;;;;;11.32;5.72;;;21.60;1.00;;;;;;7369424;19;20347;-69
2023/10/12 11:19:03;;;;;;;18.83;6.25;;;21.40;1.00;;;;;;7370777;19;20082;-69
2023/10/12 11:21:36;;;;;;;15.75;6.68;;;21.20;1.00;;;;;;7368345;19;20479;-68
2023/10/12 11:24:09;;;;;;;18.05;6.75;;;21.20;1.00;;;;;;7363407;19;20014;-70
2023/10/12 11:26:51;;;;;;;16.75;6.32;;;20.80;1.00;;;;;;7371129;19;20042;-69
2023/10/12 11:29:22;;;;;;;17.25;6.57;;;20.00;1.00;;;;;;7371736;19;20082;-69
2023/10/12 11:32:11;;;;;;;21.20;6.78;;;20.20;1.00;;;;;;7373145;19;20347;-70
2023/10/12 11:34:52;;;;;;;11.38;6.80;;;20.30;1.00;;;;;;6861817;19;2004748;-70
2023/10/12 11:37:27;;;;;;;16.60;6.47;;;20.20;1.00;;;;;;7368043;19;20013;-68
2023/10/12 11:39:59;;;;;;;13.50;5.82;;;20.20;1.00;;;;;;7373087;19;20030;-69
2023/10/12 11:42:29;;;;;;;15.63;6.10;;;20.20;1.00;;;;;;7371205;19;20015;-69
2023/10/12 11:45:09;;;;;;;11.38;5.80;;;20.10;1.00;;;;;;7376982;19;20367;-69
2023/10/12 11:47:43;;;;;;;14.32;6.38;;;20.10;1.00;;;;;;7371090;19;20093;-70
2023/10/12 11:50:13;;;;;;;14.93;5.93;;;20.20;1.00;;;;;;7371370;19;20105;-69
2023/10/12 11:52:50;;;;;;;13.13;5.80;;;20.00;1.00;;;;;;7373180;19;20411;-70
2023/10/12 11:55:27;;;;;;;15.00;5.53;;;20.00;1.00;;;;;;7370523;19;20017;-70
2023/10/12 11:57:59;;;;;;;14.52;5.72;;;20.10;1.00;;;;;;7371737;19;20014;-69
2023/10/12 12:00:29;;;;;;;11.90;6.95;;;20.00;1.00;;;;;;7352658;19;20052;-68
2023/10/12 12:03:02;;;;;;;16.60;5.70;;;20.00;1.00;;;;;;7369636;19;20025;-70
2023/10/12 12:05:33;;;;;;;10.40;5.77;;;20.00;1.00;;;;;;7369288;19;20363;-70
2023/10/12 12:08:07;;;;;;;19.33;5.85;;;20.00;1.00;;;;;;7367429;19;20300;-68
2023/10/12 12:10:54;;;;;;;;;;;20.00;1.00;;;;;;7375548;19;20052;-69
2023/10/12 12:13:24;;;;;;;16.33;5.43;;;19.90;1.00;;;;;;7374671;19;19911;-70
2023/10/12 12:15:55;;;;;;;11.00;5.28;;;20.00;1.00;;;;;;7375320;19;20035;-69
2023/10/12 12:18:27;;;;;;;14.68;6.28;;;20.10;1.00;;;;;;7378282;19;20454;-69
2023/10/12 12:21:02;;;;;;;12.07;5.45;;;20.20;1.00;;;;;;7378586;19;20736;-69
2023/10/12 12:23:40;;;;;;;11.50;5.47;;;20.30;1.00;;;;;;7339500;19;20010;-69
2023/10/12 12:26:13;;;;;;;12.63;5.47;;;20.30;1.00;;;;;;7373955;19;20015;-70
2023/10/12 12:28:49;;;;;;;14.63;6.05;;;20.40;1.00;;;;;;7378224;19;20078;-69
2023/10/12 12:31:20;;;;;;;12.63;5.60;;;20.30;1.00;;;;;;7378608;19;20097;-69
2023/10/12 12:33:52;;;;;;;14.50;5.50;;;20.30;1.00;;;;;;7377325;19;20369;-69
2023/10/12 12:36:23;;;;;;;12.13;5.35;;;20.30;1.00;;;;;;7376412;19;20517;-69
2023/10/12 12:38:57;;;;;;;11.05;5.50;;;20.30;1.00;;;;;;7377555;19;20479;-69
2023/10/12 12:41:29;;;;;;;12.68;5.75;;;20.40;1.00;;;;;;7378339;19;20375;-70
2023/10/12 12:44:00;;;;;;;11.18;5.68;;;20.40;1.00;;;;;;7370965;19;20021;-69
2023/10/12 12:46:31;;;;;;;11.88;5.82;;;20.30;1.00;;;;;;7366640;19;20418;-69
2023/10/12 12:49:02;;;;;;;15.43;6.57;;;20.50;1.00;;;;;;7358757;19;20050;-69
2023/10/12 12:51:32;;;;;;;10.20;5.68;;;20.60;1.00;;;;;;7360080;19;20018;-70
2023/10/12 12:54:05;;;;;;;21.08;6.20;;;20.60;1.00;;;;;;7360143;19;20014;-69
2023/10/12 12:56:36;;;;;;;8.35;5.18;;;20.60;1.00;;;;;;7361032;19;20660;-70
2023/10/12 12:59:07;;;;;;;10.98;6.30;;;20.50;1.00;;;;;;7357681;19;21184;-68
2023/10/12 13:01:39;;;;;;;13.80;6.70;;;20.60;1.00;;;;;;7360438;19;20010;-69
2023/10/12 13:04:09;;;;;;;14.68;5.85;;;20.60;1.00;;;;;;7358201;19;20090;-69
2023/10/12 13:06:39;;;;;;;15.48;6.00;;;20.60;1.00;;;;;;7358941;19;20424;-69
2023/10/12 13:09:28;;;;;;;17.02;6.35;;;20.80;1.00;;;;;;7356596;19;20013;-69
2023/10/12 13:11:58;;;;;;;11.02;5.68;;;20.80;1.00;;;;;;7359550;19;20014;-69
2023/10/12 13:14:28;;;;;;;14.82;5.55;;;20.70;1.00;;;;;;7361655;19;20045;-69
2023/10/12 13:16:58;;;;;;;22.63;13.43;;;20.70;1.00;;;;;;7356548;19;20010;-69
2023/10/12 13:19:31;;;;;;;12.02;5.97;;;20.70;1.00;;;;;;7372997;19;20038;-70
2023/10/12 13:22:01;;;;;;;16.40;6.20;;;20.70;1.00;;;;;;7359050;19;21119;-70
2023/10/12 13:24:35;;;;;;;15.82;5.75;;;20.80;1.00;;;;;;7358653;19;20015;-70
2023/10/12 13:27:08;;;;;;;16.55;5.82;;;20.80;1.00;;;;;;7356873;19;20114;-69
2023/10/12 13:29:38;;;;;;;17.17;6.00;;;20.80;1.00;;;;;;7357745;19;20058;-70
2023/10/12 13:32:08;;;;;;;16.85;7.22;;;20.80;1.00;;;;;;7360444;19;20560;-68
2023/10/12 13:34:38;;;;;;;17.38;6.25;;;20.90;1.00;;;;;;7358321;19;20040;-69
2023/10/12 13:37:08;;;;;;;17.25;6.07;;;20.90;1.00;;;;;;7355458;19;20695;-69
2023/10/12 13:39:41;;;;;;;15.35;5.97;;;21.00;1.00;;;;;;7357211;19;20014;-70
2023/10/12 13:42:14;;;;;;;12.88;6.45;;;21.10;1.00;;;;;;7357717;19;20014;-69
2023/10/12 13:44:44;;;;;;;20.33;6.97;;;21.10;1.00;;;;;;7359202;19;20018;-69
2023/10/12 13:47:14;;;;;;;14.60;6.03;;;21.20;1.00;;;;;;7354174;19;21219;-70
2023/10/12 13:49:44;;;;;;;17.15;6.45;;;21.10;1.00;;;;;;7354759;19;20025;-69
2023/10/12 13:52:14;;;;;;;15.05;6.53;;;21.10;1.00;;;;;;7357016;19;20328;-69
2023/10/12 13:54:47;;;;;;;11.65;5.90;;;21.30;1.00;;;;;;7356605;19;20015;-69
2023/10/12 13:57:17;;;;;;;13.27;5.80;;;21.40;1.00;;;;;;7352628;19;20006;-69
2023/10/12 13:59:47;;;;;;;15.20;5.75;;;21.50;1.00;;;;;;7356042;19;20501;-70
2023/10/12 14:02:18;;;;;;;13.05;5.63;;;21.50;1.00;;;;;;7356513;19;20129;-69
2023/10/12 14:04:49;;;;;;;13.35;6.05;;;21.40;1.00;;;;;;7357352;19;20013;-69